sensor_id;sensor_type;location;lat;lon;timestamp;P1;durP1;ratioP1;P2;durP2;ratioP2
19621;SDS011;9958;33.196;-97.114;2023-05-07T00:00:01;17.98;;;11.95;;
19621;SDS011;9958;33.196;-97.114;2023-05-07T00:02:33;18.08;;;12.00;;
19621;SDS011;9958;33.196;-97.114;2023-05-07T00:05:02;17.00;;;11.50;;
19621;SDS011;9958;33.196;-97.114;2023-05-07T00:07:31;17.13;;;12.45;;
19621;SDS011;9958;33.196;-97.114;2023-05-07T00:10:00;14.90;;;11.27;;
19621;SDS011;9958;33.196;-97.114;2023-05-07T00:12:28;15.02;;;10.85;;
19621;SDS011;9958;33.196;-97.114;2023-05-07T00:14:59;15.45;;;11.52;;
19621;SDS011;9958;33.196;-97.114;2023-05-07T00:17:29;32.28;;;12.30;;
19621;SDS011;9958;33.196;-97.114;2023-05-07T00:19:57;17.98;;;11.50;;
19621;SDS011;9958;33.196;-97.114;2023-05-07T00:22:26;16.90;;;11.55;;
19621;SDS011;9958;33.196;-97.114;2023-05-07T00:24:55;16.88;;;11.13;;
19621;SDS011;9958;33.196;-97.114;2023-05-07T00:27:24;15.77;;;11.82;;
19621;SDS011;9958;33.196;-97.114;2023-05-07T00:29:52;14.43;;;11.38;;
19621;SDS011;9958;33.196;-97.114;2023-05-07T00:32:22;14.05;;;10.90;;
19621;SDS011;9958;33.196;-97.114;2023-05-07T00:34:51;17.88;;;12.13;;
19621;SDS011;9958;33.196;-97.114;2023-05-07T00:37:19;19.30;;;11.48;;
19621;SDS011;9958;33.196;-97.114;2023-05-07T00:39:47;17.85;;;11.27;;
19621;SDS011;9958;33.196;-97.114;2023-05-07T00:42:16;16.38;;;12.20;;
19621;SDS011;9958;33.196;-97.114;2023-05-07T00:44:44;15.15;;;11.57;;
19621;SDS011;9958;33.196;-97.114;2023-05-07T00:47:12;19.52;;;11.82;;
19621;SDS011;9958;33.196;-97.114;2023-05-07T00:49:43;16.40;;;11.07;;
19621;SDS011;9958;33.196;-97.114;2023-05-07T00:52:13;17.05;;;11.75;;
19621;SDS011;9958;33.196;-97.114;2023-05-07T00:54:43;17.70;;;11.55;;
19621;SDS011;9958;33.196;-97.114;2023-05-07T00:57:12;17.77;;;11.48;;
19621;SDS011;9958;33.196;-97.114;2023-05-07T00:59:41;18.20;;;11.88;;
19621;SDS011;9958;33.196;-97.114;2023-05-07T01:02:10;16.00;;;10.73;;
19621;SDS011;9958;33.196;-97.114;2023-05-07T01:04:38;18.00;;;11.80;;
19621;SDS011;9958;33.196;-97.114;2023-05-07T01:07:08;18.58;;;11.10;;
19621;SDS011;9958;33.196;-97.114;2023-05-07T01:09:37;19.15;;;12.48;;
19621;SDS011;9958;33.196;-97.114;2023-05-07T01:12:05;20.42;;;12.07;;
19621;SDS011;9958;33.196;-97.114;2023-05-07T01:14:35;15.52;;;10.95;;
19621;SDS011;9958;33.196;-97.114;2023-05-07T01:17:03;16.73;;;11.05;;
19621;SDS011;9958;33.196;-97.114;2023-05-07T01:19:32;17.02;;;11.07;;
19621;SDS011;9958;33.196;-97.114;2023-05-07T01:22:02;18.20;;;11.50;;
19621;SDS011;9958;33.196;-97.114;2023-05-07T01:24:36;14.98;;;10.90;;
19621;SDS011;9958;33.196;-97.114;2023-05-07T01:27:05;17.67;;;11.15;;
19621;SDS011;9958;33.196;-97.114;2023-05-07T01:29:33;16.95;;;11.75;;
19621;SDS011;9958;33.196;-97.114;2023-05-07T01:32:01;18.85;;;11.57;;
19621;SDS011;9958;33.196;-97.114;2023-05-07T01:34:31;17.00;;;11.77;;
19621;SDS011;9958;33.196;-97.114;2023-05-07T01:37:01;17.88;;;12.02;;
19621;SDS011;9958;33.196;-97.114;2023-05-07T01:39:30;17.60;;;11.77;;
19621;SDS011;9958;33.196;-97.114;2023-05-07T01:42:00;15.15;;;11.43;;
19621;SDS011;9958;33.196;-97.114;2023-05-07T01:44:29;16.65;;;11.43;;
19621;SDS011;9958;33.196;-97.114;2023-05-07T01:46:57;21.88;;;11.90;;
19621;SDS011;9958;33.196;-97.114;2023-05-07T01:49:26;16.45;;;11.65;;
19621;SDS011;9958;33.196;-97.114;2023-05-07T01:51:55;16.98;;;11.82;;
19621;SDS011;9958;33.196;-97.114;2023-05-07T01:54:25;15.82;;;11.52;;
19621;SDS011;9958;33.196;-97.114;2023-05-07T01:56:55;18.95;;;12.60;;
19621;SDS011;9958;33.196;-97.114;2023-05-07T01:59:26;18.02;;;12.38;;
19621;SDS011;9958;33.196;-97.114;2023-05-07T02:01:54;19.10;;;12.63;;
19621;SDS011;9958;33.196;-97.114;2023-05-07T02:04:22;19.55;;;12.68;;
19621;SDS011;9958;33.196;-97.114;2023-05-07T02:06:51;18.45;;;12.60;;
19621;SDS011;9958;33.196;-97.114;2023-05-07T02:09:19;14.20;;;9.57;;
19621;SDS011;9958;33.196;-97.114;2023-05-07T02:11:48;8.20;;;5.22;;
19621;SDS011;9958;33.196;-97.114;2023-05-07T02:14:16;3.55;;;2.15;;
19621;SDS011;9958;33.196;-97.114;2023-05-07T02:16:47;3.15;;;1.98;;
19621;SDS011;9958;33.196;-97.114;2023-05-07T02:19:15;2.58;;;2.22;;
19621;SDS011;9958;33.196;-97.114;2023-05-07T02:21:43;3.30;;;1.80;;
19621;SDS011;9958;33.196;-97.114;2023-05-07T02:24:12;1.60;;;1.50;;
19621;SDS011;9958;33.196;-97.114;2023-05-07T02:26:40;4.70;;;1.52;;
19621;SDS011;9958;33.196;-97.114;2023-05-07T02:29:08;1.77;;;1.45;;
19621;SDS011;9958;33.196;-97.114;2023-05-07T02:31:37;2.20;;;1.10;;
19621;SDS011;9958;33.196;-97.114;2023-05-07T02:34:06;1.88;;;1.10;;
19621;SDS011;9958;33.196;-97.114;2023-05-07T02:36:35;3.42;;;1.80;;
19621;SDS011;9958;33.196;-97.114;2023-05-07T02:39:03;2.28;;;2.08;;
19621;SDS011;9958;33.196;-97.114;2023-05-07T02:41:31;4.03;;;2.90;;
19621;SDS011;9958;33.196;-97.114;2023-05-07T02:44:00;8.20;;;4.13;;
19621;SDS011;9958;33.196;-97.114;2023-05-07T02:46:28;12.77;;;5.80;;
19621;SDS011;9958;33.196;-97.114;2023-05-07T02:48:56;14.52;;;8.60;;
19621;SDS011;9958;33.196;-97.114;2023-05-07T02:51:26;10.75;;;8.05;;
19621;SDS011;9958;33.196;-97.114;2023-05-07T02:53:55;8.93;;;5.03;;
19621;SDS011;9958;33.196;-97.114;2023-05-07T02:56:25;7.40;;;4.20;;
19621;SDS011;9958;33.196;-97.114;2023-05-07T02:58:53;4.88;;;3.38;;
19621;SDS011;9958;33.196;-97.114;2023-05-07T03:01:22;4.10;;;2.95;;
19621;SDS011;9958;33.196;-97.114;2023-05-07T03:03:50;4.05;;;2.90;;
19621;SDS011;9958;33.196;-97.114;2023-05-07T03:06:18;4.25;;;2.72;;
19621;SDS011;9958;33.196;-97.114;2023-05-07T03:08:48;8.20;;;2.58;;
19621;SDS011;9958;33.196;-97.114;2023-05-07T03:11:17;3.78;;;2.22;;
19621;SDS011;9958;33.196;-97.114;2023-05-07T03:13:45;2.78;;;2.17;;
19621;SDS011;9958;33.196;-97.114;2023-05-07T03:16:15;2.53;;;2.33;;
19621;SDS011;9958;33.196;-97.114;2023-05-07T03:18:43;3.65;;;2.20;;
19621;SDS011;9958;33.196;-97.114;2023-05-07T03:21:12;3.95;;;2.63;;
19621;SDS011;9958;33.196;-97.114;2023-05-07T03:23:40;3.88;;;2.30;;
19621;SDS011;9958;33.196;-97.114;2023-05-07T03:26:10;4.13;;;1.83;;
19621;SDS011;9958;33.196;-97.114;2023-05-07T03:28:38;4.63;;;1.98;;
19621;SDS011;9958;33.196;-97.114;2023-05-07T03:31:07;2.40;;;1.85;;
19621;SDS011;9958;33.196;-97.114;2023-05-07T03:33:35;4.18;;;1.63;;
19621;SDS011;9958;33.196;-97.114;2023-05-07T03:36:17;3.15;;;1.77;;
19621;SDS011;9958;33.196;-97.114;2023-05-07T03:38:46;2.05;;;1.63;;
19621;SDS011;9958;33.196;-97.114;2023-05-07T03:41:16;2.83;;;1.40;;
19621;SDS011;9958;33.196;-97.114;2023-05-07T03:43:45;2.67;;;1.50;;
19621;SDS011;9958;33.196;-97.114;2023-05-07T03:46:14;2.25;;;1.50;;
19621;SDS011;9958;33.196;-97.114;2023-05-07T03:48:42;2.22;;;1.75;;
19621;SDS011;9958;33.196;-97.114;2023-05-07T03:51:10;3.13;;;1.85;;
19621;SDS011;9958;33.196;-97.114;2023-05-07T03:53:39;2.08;;;1.45;;
19621;SDS011;9958;33.196;-97.114;2023-05-07T03:56:07;2.08;;;1.40;;
19621;SDS011;9958;33.196;-97.114;2023-05-07T03:58:37;4.78;;;1.60;;
19621;SDS011;9958;33.196;-97.114;2023-05-07T04:01:05;2.70;;;1.70;;
19621;SDS011;9958;33.196;-97.114;2023-05-07T04:03:34;2.30;;;1.15;;
19621;SDS011;9958;33.196;-97.114;2023-05-07T04:06:02;2.55;;;1.50;;
19621;SDS011;9958;33.196;-97.114;2023-05-07T04:08:31;3.03;;;1.70;;
19621;SDS011;9958;33.196;-97.114;2023-05-07T04:10:59;2.90;;;1.45;;
19621;SDS011;9958;33.196;-97.114;2023-05-07T04:13:27;3.65;;;1.67;;
19621;SDS011;9958;33.196;-97.114;2023-05-07T04:16:00;2.70;;;1.85;;
19621;SDS011;9958;33.196;-97.114;2023-05-07T04:18:30;3.70;;;1.75;;
19621;SDS011;9958;33.196;-97.114;2023-05-07T04:20:58;2.88;;;1.80;;
19621;SDS011;9958;33.196;-97.114;2023-05-07T04:23:26;3.60;;;1.90;;
19621;SDS011;9958;33.196;-97.114;2023-05-07T04:25:55;2.22;;;1.90;;
19621;SDS011;9958;33.196;-97.114;2023-05-07T04:28:23;2.30;;;1.70;;
19621;SDS011;9958;33.196;-97.114;2023-05-07T04:30:52;1.92;;;1.73;;
19621;SDS011;9958;33.196;-97.114;2023-05-07T04:33:21;2.70;;;1.80;;
19621;SDS011;9958;33.196;-97.114;2023-05-07T04:35:50;2.70;;;1.67;;
19621;SDS011;9958;33.196;-97.114;2023-05-07T04:38:18;3.03;;;2.42;;
19621;SDS011;9958;33.196;-97.114;2023-05-07T04:40:46;3.00;;;1.73;;
19621;SDS011;9958;33.196;-97.114;2023-05-07T04:43:15;2.90;;;1.92;;
19621;SDS011;9958;33.196;-97.114;2023-05-07T04:45:43;4.72;;;2.10;;
19621;SDS011;9958;33.196;-97.114;2023-05-07T04:48:11;5.80;;;1.98;;
19621;SDS011;9958;33.196;-97.114;2023-05-07T04:50:43;3.40;;;2.05;;
19621;SDS011;9958;33.196;-97.114;2023-05-07T04:53:11;6.90;;;2.08;;
19621;SDS011;9958;33.196;-97.114;2023-05-07T04:55:40;4.88;;;2.15;;
19621;SDS011;9958;33.196;-97.114;2023-05-07T04:58:08;3.88;;;2.05;;
19621;SDS011;9958;33.196;-97.114;2023-05-07T05:00:37;4.13;;;2.10;;
19621;SDS011;9958;33.196;-97.114;2023-05-07T05:03:06;7.10;;;2.70;;
19621;SDS011;9958;33.196;-97.114;2023-05-07T05:05:34;6.82;;;2.05;;
19621;SDS011;9958;33.196;-97.114;2023-05-07T05:08:04;5.13;;;2.10;;
19621;SDS011;9958;33.196;-97.114;2023-05-07T05:10:32;5.25;;;2.35;;
19621;SDS011;9958;33.196;-97.114;2023-05-07T05:13:01;5.50;;;2.17;;
19621;SDS011;9958;33.196;-97.114;2023-05-07T05:15:29;3.80;;;2.13;;
19621;SDS011;9958;33.196;-97.114;2023-05-07T05:17:57;2.95;;;2.30;;
19621;SDS011;9958;33.196;-97.114;2023-05-07T05:20:26;6.20;;;2.38;;
19621;SDS011;9958;33.196;-97.114;2023-05-07T05:22:54;4.10;;;2.30;;
19621;SDS011;9958;33.196;-97.114;2023-05-07T05:25:24;2.83;;;2.30;;
19621;SDS011;9958;33.196;-97.114;2023-05-07T05:27:53;3.00;;;2.20;;
19621;SDS011;9958;33.196;-97.114;2023-05-07T05:30:21;4.63;;;2.53;;
19621;SDS011;9958;33.196;-97.114;2023-05-07T05:32:49;3.83;;;2.65;;
19621;SDS011;9958;33.196;-97.114;2023-05-07T05:35:18;2.75;;;1.83;;
19621;SDS011;9958;33.196;-97.114;2023-05-07T05:37:46;2.15;;;1.70;;
19621;SDS011;9958;33.196;-97.114;2023-05-07T05:40:15;3.40;;;2.10;;
19621;SDS011;9958;33.196;-97.114;2023-05-07T05:42:45;10.55;;;2.13;;
19621;SDS011;9958;33.196;-97.114;2023-05-07T05:45:13;2.90;;;2.15;;
19621;SDS011;9958;33.196;-97.114;2023-05-07T05:47:41;2.67;;;2.15;;
19621;SDS011;9958;33.196;-97.114;2023-05-07T05:50:10;3.55;;;2.15;;
19621;SDS011;9958;33.196;-97.114;2023-05-07T05:52:38;3.63;;;2.40;;
19621;SDS011;9958;33.196;-97.114;2023-05-07T05:55:07;3.38;;;1.90;;
19621;SDS011;9958;33.196;-97.114;2023-05-07T05:57:36;3.20;;;1.95;;
19621;SDS011;9958;33.196;-97.114;2023-05-07T06:00:07;2.65;;;2.15;;
19621;SDS011;9958;33.196;-97.114;2023-05-07T06:02:36;2.28;;;1.90;;
19621;SDS011;9958;33.196;-97.114;2023-05-07T06:05:05;3.10;;;1.92;;
19621;SDS011;9958;33.196;-97.114;2023-05-07T06:07:34;1.92;;;1.65;;
19621;SDS011;9958;33.196;-97.114;2023-05-07T06:10:02;2.22;;;1.85;;
19621;SDS011;9958;33.196;-97.114;2023-05-07T06:12:31;3.03;;;1.83;;
19621;SDS011;9958;33.196;-97.114;2023-05-07T06:14:59;2.33;;;1.67;;
19621;SDS011;9958;33.196;-97.114;2023-05-07T06:17:29;2.83;;;2.15;;
19621;SDS011;9958;33.196;-97.114;2023-05-07T06:19:58;1.75;;;1.65;;
19621;SDS011;9958;33.196;-97.114;2023-05-07T06:22:26;3.45;;;1.80;;
19621;SDS011;9958;33.196;-97.114;2023-05-07T06:24:54;1.92;;;1.60;;
19621;SDS011;9958;33.196;-97.114;2023-05-07T06:27:23;2.63;;;1.60;;
19621;SDS011;9958;33.196;-97.114;2023-05-07T06:29:51;2.92;;;1.67;;
19621;SDS011;9958;33.196;-97.114;2023-05-07T06:32:20;2.15;;;1.70;;
19621;SDS011;9958;33.196;-97.114;2023-05-07T06:34:49;1.70;;;1.60;;
19621;SDS011;9958;33.196;-97.114;2023-05-07T06:37:18;2.08;;;1.80;;
19621;SDS011;9958;33.196;-97.114;2023-05-07T06:39:46;2.00;;;1.65;;
19621;SDS011;9958;33.196;-97.114;2023-05-07T06:42:14;1.88;;;1.77;;
19621;SDS011;9958;33.196;-97.114;2023-05-07T06:44:43;1.90;;;1.60;;
19621;SDS011;9958;33.196;-97.114;2023-05-07T06:47:11;2.25;;;1.70;;
19621;SDS011;9958;33.196;-97.114;2023-05-07T06:49:39;2.40;;;1.80;;
19621;SDS011;9958;33.196;-97.114;2023-05-07T06:52:09;1.77;;;1.60;;
19621;SDS011;9958;33.196;-97.114;2023-05-07T06:54:37;1.60;;;1.50;;
19621;SDS011;9958;33.196;-97.114;2023-05-07T06:57:06;1.63;;;1.52;;
19621;SDS011;9958;33.196;-97.114;2023-05-07T06:59:34;2.85;;;1.60;;
19621;SDS011;9958;33.196;-97.114;2023-05-07T07:02:02;2.80;;;2.03;;
19621;SDS011;9958;33.196;-97.114;2023-05-07T07:04:31;2.72;;;1.60;;
19621;SDS011;9958;33.196;-97.114;2023-05-07T07:06:59;1.73;;;1.60;;
19621;SDS011;9958;33.196;-97.114;2023-05-07T07:09:29;2.58;;;2.10;;
19621;SDS011;9958;33.196;-97.114;2023-05-07T07:11:58;2.20;;;2.00;;
19621;SDS011;9958;33.196;-97.114;2023-05-07T07:14:26;2.13;;;1.70;;
19621;SDS011;9958;33.196;-97.114;2023-05-07T07:16:54;2.08;;;1.88;;
19621;SDS011;9958;33.196;-97.114;2023-05-07T07:19:22;2.42;;;1.95;;
19621;SDS011;9958;33.196;-97.114;2023-05-07T07:21:51;3.70;;;2.40;;
19621;SDS011;9958;33.196;-97.114;2023-05-07T07:24:19;5.63;;;2.60;;
19621;SDS011;9958;33.196;-97.114;2023-05-07T07:26:49;3.67;;;2.17;;
19621;SDS011;9958;33.196;-97.114;2023-05-07T07:29:17;3.42;;;2.28;;
19621;SDS011;9958;33.196;-97.114;2023-05-07T07:31:46;2.83;;;2.45;;
19621;SDS011;9958;33.196;-97.114;2023-05-07T07:34:15;3.67;;;2.80;;
19621;SDS011;9958;33.196;-97.114;2023-05-07T07:36:43;4.95;;;2.47;;
19621;SDS011;9958;33.196;-97.114;2023-05-07T07:39:11;3.72;;;2.20;;
19621;SDS011;9958;33.196;-97.114;2023-05-07T07:41:40;3.08;;;2.40;;
19621;SDS011;9958;33.196;-97.114;2023-05-07T07:44:10;4.20;;;2.53;;
19621;SDS011;9958;33.196;-97.114;2023-05-07T07:46:38;3.28;;;2.38;;
19621;SDS011;9958;33.196;-97.114;2023-05-07T07:49:06;3.38;;;2.70;;
19621;SDS011;9958;33.196;-97.114;2023-05-07T07:51:35;3.60;;;2.60;;
19621;SDS011;9958;33.196;-97.114;2023-05-07T07:54:03;4.80;;;2.60;;
19621;SDS011;9958;33.196;-97.114;2023-05-07T07:56:32;4.43;;;3.00;;
19621;SDS011;9958;33.196;-97.114;2023-05-07T07:59:00;3.78;;;2.50;;
19621;SDS011;9958;33.196;-97.114;2023-05-07T08:01:30;3.03;;;2.50;;
19621;SDS011;9958;33.196;-97.114;2023-05-07T08:03:59;3.65;;;2.70;;
19621;SDS011;9958;33.196;-97.114;2023-05-07T08:06:28;3.67;;;2.60;;
19621;SDS011;9958;33.196;-97.114;2023-05-07T08:08:56;3.97;;;2.72;;
19621;SDS011;9958;33.196;-97.114;2023-05-07T08:11:25;4.00;;;2.75;;
19621;SDS011;9958;33.196;-97.114;2023-05-07T08:13:54;5.53;;;2.90;;
19621;SDS011;9958;33.196;-97.114;2023-05-07T08:16:22;5.45;;;2.50;;
19621;SDS011;9958;33.196;-97.114;2023-05-07T08:18:52;5.50;;;2.20;;
19621;SDS011;9958;33.196;-97.114;2023-05-07T08:21:20;3.78;;;2.80;;
19621;SDS011;9958;33.196;-97.114;2023-05-07T08:23:49;2.65;;;2.25;;
19621;SDS011;9958;33.196;-97.114;2023-05-07T08:26:17;3.92;;;2.30;;
19621;SDS011;9958;33.196;-97.114;2023-05-07T08:28:45;3.30;;;2.20;;
19621;SDS011;9958;33.196;-97.114;2023-05-07T08:31:14;2.33;;;2.13;;
19621;SDS011;9958;33.196;-97.114;2023-05-07T08:33:42;2.95;;;2.13;;
19621;SDS011;9958;33.196;-97.114;2023-05-07T08:36:12;2.50;;;2.22;;
19621;SDS011;9958;33.196;-97.114;2023-05-07T08:38:40;3.35;;;2.25;;
19621;SDS011;9958;33.196;-97.114;2023-05-07T08:41:11;3.65;;;2.65;;
19621;SDS011;9958;33.196;-97.114;2023-05-07T08:43:40;5.68;;;2.13;;
19621;SDS011;9958;33.196;-97.114;2023-05-07T08:46:09;2.55;;;2.10;;
19621;SDS011;9958;33.196;-97.114;2023-05-07T08:48:38;2.22;;;2.00;;
19621;SDS011;9958;33.196;-97.114;2023-05-07T08:51:06;2.63;;;2.10;;
19621;SDS011;9958;33.196;-97.114;2023-05-07T08:53:38;2.28;;;1.90;;
19621;SDS011;9958;33.196;-97.114;2023-05-07T08:56:08;2.38;;;1.73;;
19621;SDS011;9958;33.196;-97.114;2023-05-07T08:58:37;2.50;;;1.80;;
19621;SDS011;9958;33.196;-97.114;2023-05-07T09:01:06;2.95;;;1.65;;
19621;SDS011;9958;33.196;-97.114;2023-05-07T09:03:36;3.22;;;1.90;;
19621;SDS011;9958;33.196;-97.114;2023-05-07T09:06:05;3.53;;;1.73;;
19621;SDS011;9958;33.196;-97.114;2023-05-07T09:08:34;1.75;;;1.65;;
19621;SDS011;9958;33.196;-97.114;2023-05-07T09:11:04;3.33;;;1.50;;
19621;SDS011;9958;33.196;-97.114;2023-05-07T09:13:33;1.40;;;1.20;;
19621;SDS011;9958;33.196;-97.114;2023-05-07T09:16:09;3.55;;;2.03;;
19621;SDS011;9958;33.196;-97.114;2023-05-07T09:18:41;2.38;;;1.80;;
19621;SDS011;9958;33.196;-97.114;2023-05-07T09:21:10;2.10;;;1.63;;
19621;SDS011;9958;33.196;-97.114;2023-05-07T09:23:43;2.30;;;2.10;;
19621;SDS011;9958;33.196;-97.114;2023-05-07T09:26:11;1.98;;;1.77;;
19621;SDS011;9958;33.196;-97.114;2023-05-07T09:28:41;2.05;;;1.60;;
19621;SDS011;9958;33.196;-97.114;2023-05-07T09:31:10;2.55;;;1.60;;
19621;SDS011;9958;33.196;-97.114;2023-05-07T09:33:39;2.58;;;2.15;;
19621;SDS011;9958;33.196;-97.114;2023-05-07T09:36:08;2.03;;;1.83;;
19621;SDS011;9958;33.196;-97.114;2023-05-07T09:38:37;3.10;;;2.08;;
19621;SDS011;9958;33.196;-97.114;2023-05-07T09:41:08;3.17;;;1.73;;
19621;SDS011;9958;33.196;-97.114;2023-05-07T09:43:38;2.17;;;1.90;;
19621;SDS011;9958;33.196;-97.114;2023-05-07T09:46:07;2.05;;;1.83;;
19621;SDS011;9958;33.196;-97.114;2023-05-07T09:48:39;2.50;;;2.10;;
19621;SDS011;9958;33.196;-97.114;2023-05-07T09:51:13;2.95;;;2.20;;
19621;SDS011;9958;33.196;-97.114;2023-05-07T09:53:48;4.80;;;2.28;;
19621;SDS011;9958;33.196;-97.114;2023-05-07T09:56:21;4.07;;;2.13;;
19621;SDS011;9958;33.196;-97.114;2023-05-07T09:58:49;5.07;;;2.50;;
19621;SDS011;9958;33.196;-97.114;2023-05-07T10:01:21;2.15;;;1.95;;
19621;SDS011;9958;33.196;-97.114;2023-05-07T10:03:51;2.55;;;2.35;;
19621;SDS011;9958;33.196;-97.114;2023-05-07T10:06:20;3.03;;;2.20;;
19621;SDS011;9958;33.196;-97.114;2023-05-07T10:08:49;4.70;;;2.05;;
19621;SDS011;9958;33.196;-97.114;2023-05-07T10:11:21;4.32;;;2.20;;
19621;SDS011;9958;33.196;-97.114;2023-05-07T10:13:49;2.60;;;2.40;;
19621;SDS011;9958;33.196;-97.114;2023-05-07T10:16:19;2.35;;;1.90;;
19621;SDS011;9958;33.196;-97.114;2023-05-07T10:18:48;3.97;;;2.15;;
19621;SDS011;9958;33.196;-97.114;2023-05-07T10:21:18;2.78;;;2.15;;
19621;SDS011;9958;33.196;-97.114;2023-05-07T10:23:48;3.28;;;2.15;;
19621;SDS011;9958;33.196;-97.114;2023-05-07T10:26:18;3.35;;;2.00;;
19621;SDS011;9958;33.196;-97.114;2023-05-07T10:28:50;3.63;;;2.50;;
19621;SDS011;9958;33.196;-97.114;2023-05-07T10:31:30;3.00;;;2.10;;
19621;SDS011;9958;33.196;-97.114;2023-05-07T10:34:19;3.17;;;2.33;;
19621;SDS011;9958;33.196;-97.114;2023-05-07T10:36:51;2.50;;;2.30;;
19621;SDS011;9958;33.196;-97.114;2023-05-07T10:39:21;4.25;;;2.40;;
19621;SDS011;9958;33.196;-97.114;2023-05-07T10:41:51;3.33;;;2.70;;
19621;SDS011;9958;33.196;-97.114;2023-05-07T10:44:26;2.97;;;2.42;;
19621;SDS011;9958;33.196;-97.114;2023-05-07T10:47:05;2.53;;;2.33;;
19621;SDS011;9958;33.196;-97.114;2023-05-07T10:49:35;3.50;;;2.40;;
19621;SDS011;9958;33.196;-97.114;2023-05-07T10:52:13;3.30;;;2.50;;
19621;SDS011;9958;33.196;-97.114;2023-05-07T10:54:42;4.03;;;3.08;;
19621;SDS011;9958;33.196;-97.114;2023-05-07T11:00:03;4.10;;;2.85;;
19621;SDS011;9958;33.196;-97.114;2023-05-07T11:05:43;2.97;;;2.70;;
19621;SDS011;9958;33.196;-97.114;2023-05-07T11:08:12;3.85;;;2.67;;
19621;SDS011;9958;33.196;-97.114;2023-05-07T11:10:47;3.47;;;2.67;;
19621;SDS011;9958;33.196;-97.114;2023-05-07T11:13:18;2.42;;;2.22;;
19621;SDS011;9958;33.196;-97.114;2023-05-07T11:16:17;3.35;;;2.72;;
19621;SDS011;9958;33.196;-97.114;2023-05-07T11:18:46;4.03;;;2.67;;
19621;SDS011;9958;33.196;-97.114;2023-05-07T11:24:02;2.97;;;2.53;;
19621;SDS011;9958;33.196;-97.114;2023-05-07T11:26:41;3.03;;;2.70;;
19621;SDS011;9958;33.196;-97.114;2023-05-07T11:29:15;3.65;;;2.60;;
19621;SDS011;9958;33.196;-97.114;2023-05-07T11:31:48;3.95;;;2.70;;
19621;SDS011;9958;33.196;-97.114;2023-05-07T11:34:20;3.65;;;2.75;;
19621;SDS011;9958;33.196;-97.114;2023-05-07T11:36:49;5.95;;;2.97;;
19621;SDS011;9958;33.196;-97.114;2023-05-07T11:39:27;4.15;;;2.80;;
19621;SDS011;9958;33.196;-97.114;2023-05-07T11:41:57;5.60;;;2.97;;
19621;SDS011;9958;33.196;-97.114;2023-05-07T11:44:27;5.50;;;2.88;;
19621;SDS011;9958;33.196;-97.114;2023-05-07T11:47:08;3.65;;;2.50;;
19621;SDS011;9958;33.196;-97.114;2023-05-07T11:49:37;3.35;;;2.58;;
19621;SDS011;9958;33.196;-97.114;2023-05-07T11:52:06;3.58;;;3.00;;
19621;SDS011;9958;33.196;-97.114;2023-05-07T11:54:37;3.28;;;2.90;;
19621;SDS011;9958;33.196;-97.114;2023-05-07T11:57:06;3.30;;;2.90;;
19621;SDS011;9958;33.196;-97.114;2023-05-07T11:59:42;4.15;;;3.53;;
19621;SDS011;9958;33.196;-97.114;2023-05-07T12:02:13;5.63;;;2.92;;
19621;SDS011;9958;33.196;-97.114;2023-05-07T12:04:42;5.00;;;3.03;;
19621;SDS011;9958;33.196;-97.114;2023-05-07T12:07:13;4.57;;;3.50;;
19621;SDS011;9958;33.196;-97.114;2023-05-07T12:09:42;4.82;;;3.38;;
19621;SDS011;9958;33.196;-97.114;2023-05-07T12:12:11;4.63;;;3.40;;
19621;SDS011;9958;33.196;-97.114;2023-05-07T12:14:41;5.22;;;3.72;;
19621;SDS011;9958;33.196;-97.114;2023-05-07T12:17:13;5.90;;;3.13;;
19621;SDS011;9958;33.196;-97.114;2023-05-07T12:19:42;7.82;;;3.08;;
19621;SDS011;9958;33.196;-97.114;2023-05-07T12:22:11;4.70;;;3.67;;
19621;SDS011;9958;33.196;-97.114;2023-05-07T12:24:44;5.53;;;4.00;;
19621;SDS011;9958;33.196;-97.114;2023-05-07T12:27:13;6.65;;;3.85;;
19621;SDS011;9958;33.196;-97.114;2023-05-07T12:29:45;7.43;;;4.30;;
19621;SDS011;9958;33.196;-97.114;2023-05-07T12:32:14;6.82;;;3.90;;
19621;SDS011;9958;33.196;-97.114;2023-05-07T12:34:43;5.78;;;3.50;;
19621;SDS011;9958;33.196;-97.114;2023-05-07T12:37:12;6.05;;;3.92;;
19621;SDS011;9958;33.196;-97.114;2023-05-07T12:39:44;7.93;;;4.28;;
19621;SDS011;9958;33.196;-97.114;2023-05-07T12:42:14;5.95;;;3.42;;
19621;SDS011;9958;33.196;-97.114;2023-05-07T12:44:46;4.80;;;3.33;;
19621;SDS011;9958;33.196;-97.114;2023-05-07T12:47:15;6.43;;;4.20;;
19621;SDS011;9958;33.196;-97.114;2023-05-07T12:49:43;5.85;;;4.25;;
19621;SDS011;9958;33.196;-97.114;2023-05-07T12:52:12;5.05;;;3.53;;
19621;SDS011;9958;33.196;-97.114;2023-05-07T12:54:41;5.97;;;3.63;;
19621;SDS011;9958;33.196;-97.114;2023-05-07T12:57:11;6.82;;;4.30;;
19621;SDS011;9958;33.196;-97.114;2023-05-07T12:59:40;6.90;;;3.58;;
19621;SDS011;9958;33.196;-97.114;2023-05-07T13:02:10;4.95;;;3.30;;
19621;SDS011;9958;33.196;-97.114;2023-05-07T13:04:39;5.10;;;3.72;;
19621;SDS011;9958;33.196;-97.114;2023-05-07T13:07:07;5.75;;;3.40;;
19621;SDS011;9958;33.196;-97.114;2023-05-07T13:09:35;5.97;;;3.53;;
19621;SDS011;9958;33.196;-97.114;2023-05-07T13:12:04;4.93;;;3.10;;
19621;SDS011;9958;33.196;-97.114;2023-05-07T13:14:32;6.68;;;4.18;;
19621;SDS011;9958;33.196;-97.114;2023-05-07T13:17:01;7.72;;;4.07;;
19621;SDS011;9958;33.196;-97.114;2023-05-07T13:19:30;8.40;;;4.70;;
19621;SDS011;9958;33.196;-97.114;2023-05-07T13:21:59;3.90;;;3.42;;
19621;SDS011;9958;33.196;-97.114;2023-05-07T13:24:27;6.60;;;4.15;;
19621;SDS011;9958;33.196;-97.114;2023-05-07T13:26:56;7.43;;;4.43;;
19621;SDS011;9958;33.196;-97.114;2023-05-07T13:29:24;9.18;;;4.30;;
19621;SDS011;9958;33.196;-97.114;2023-05-07T13:31:55;6.03;;;3.90;;
19621;SDS011;9958;33.196;-97.114;2023-05-07T13:34:24;6.88;;;4.22;;
19621;SDS011;9958;33.196;-97.114;2023-05-07T13:36:54;6.55;;;3.67;;
19621;SDS011;9958;33.196;-97.114;2023-05-07T13:39:22;7.28;;;3.95;;
19621;SDS011;9958;33.196;-97.114;2023-05-07T13:41:50;9.85;;;4.50;;
19621;SDS011;9958;33.196;-97.114;2023-05-07T13:44:19;5.95;;;4.60;;
19621;SDS011;9958;33.196;-97.114;2023-05-07T13:46:47;6.90;;;4.40;;
19621;SDS011;9958;33.196;-97.114;2023-05-07T13:49:16;6.85;;;4.35;;
19621;SDS011;9958;33.196;-97.114;2023-05-07T13:51:45;6.78;;;4.18;;
19621;SDS011;9958;33.196;-97.114;2023-05-07T13:54:14;5.97;;;4.68;;
19621;SDS011;9958;33.196;-97.114;2023-05-07T13:56:43;5.63;;;4.45;;
19621;SDS011;9958;33.196;-97.114;2023-05-07T13:59:11;9.25;;;4.57;;
19621;SDS011;9958;33.196;-97.114;2023-05-07T14:01:40;8.00;;;4.25;;
19621;SDS011;9958;33.196;-97.114;2023-05-07T14:04:08;6.75;;;4.50;;
19621;SDS011;9958;33.196;-97.114;2023-05-07T14:06:37;7.38;;;4.43;;
19621;SDS011;9958;33.196;-97.114;2023-05-07T14:09:05;7.55;;;4.20;;
19621;SDS011;9958;33.196;-97.114;2023-05-07T14:11:35;6.95;;;4.35;;
19621;SDS011;9958;33.196;-97.114;2023-05-07T14:14:04;7.47;;;4.50;;
19621;SDS011;9958;33.196;-97.114;2023-05-07T14:16:32;7.07;;;4.22;;
19621;SDS011;9958;33.196;-97.114;2023-05-07T14:19:00;5.35;;;4.57;;
19621;SDS011;9958;33.196;-97.114;2023-05-07T14:21:28;7.18;;;4.63;;
19621;SDS011;9958;33.196;-97.114;2023-05-07T14:23:57;7.30;;;4.82;;
19621;SDS011;9958;33.196;-97.114;2023-05-07T14:26:26;8.40;;;4.68;;
19621;SDS011;9958;33.196;-97.114;2023-05-07T14:28:56;7.65;;;5.07;;
19621;SDS011;9958;33.196;-97.114;2023-05-07T14:31:24;10.38;;;4.88;;
19621;SDS011;9958;33.196;-97.114;2023-05-07T14:33:53;7.50;;;5.10;;
19621;SDS011;9958;33.196;-97.114;2023-05-07T14:36:23;6.88;;;5.07;;
19621;SDS011;9958;33.196;-97.114;2023-05-07T14:38:52;7.57;;;4.55;;
19621;SDS011;9958;33.196;-97.114;2023-05-07T14:41:21;7.05;;;4.65;;
19621;SDS011;9958;33.196;-97.114;2023-05-07T14:43:50;9.23;;;4.97;;
19621;SDS011;9958;33.196;-97.114;2023-05-07T14:46:19;9.13;;;5.60;;
19621;SDS011;9958;33.196;-97.114;2023-05-07T14:48:49;7.88;;;5.07;;
19621;SDS011;9958;33.196;-97.114;2023-05-07T14:51:17;8.07;;;6.05;;